Time;durP1;ratioP1;P1;durP2;ratioP2;P2;SDS_P1;SDS_P2;PMS_P1;PMS_P2;Temp;Humidity;BMP_temperature;BMP_pressure;BME280_temperature;BME280_humidity;BME280_pressure;Samples;Min_cycle;Max_cycle;Signal;HPM_P1;HPM_P2
2022/12/31 00:01:27;;;;;;;1.07;0.60;;;;;;;12.11;100.00;97910.38;5031060;28;20689;-80
2022/12/31 00:03:53;;;;;;;0.77;0.70;;;;;;;12.06;100.00;97908.09;5099877;22;20735;-80
2022/12/31 00:06:22;;;;;;;0.70;0.70;;;;;;;12.11;100.00;97915.66;5091029;28;20235;-79
2022/12/31 00:08:50;;;;;;;1.97;1.40;;;;;;;12.03;100.00;97924.22;5090886;28;20212;-80
2022/12/31 00:11:17;;;;;;;0.83;0.57;;;;;;;12.05;100.00;97926.75;5090997;28;20216;-80
2022/12/31 00:13:45;;;;;;;1.00;0.70;;;;;;;12.13;100.00;97929.63;5090877;28;20237;-80
2022/12/31 00:16:14;;;;;;;0.63;0.63;;;;;;;12.14;100.00;97923.34;5091129;28;20209;-80
2022/12/31 00:18:44;;;;;;;0.60;0.60;;;;;;;12.08;100.00;97921.19;5090845;28;20203;-80
2022/12/31 00:21:12;;;;;;;0.97;0.87;;;;;;;12.11;100.00;97936.88;5090810;28;20217;-80
2022/12/31 00:23:39;;;;;;;0.90;0.80;;;;;;;12.08;100.00;97931.78;5090839;28;20233;-80
2022/12/31 00:26:07;;;;;;;0.63;0.53;;;;;;;12.11;100.00;97923.63;5090908;28;20211;-80
2022/12/31 00:28:34;;;;;;;1.13;0.77;;;;;;;12.15;100.00;97933.00;5090795;28;20229;-80
2022/12/31 00:31:06;;;;;;;0.73;0.60;;;;;;;12.17;100.00;97936.38;5090550;28;20214;-80
2022/12/31 00:33:33;;;;;;;0.67;0.60;;;;;;;12.07;100.00;97946.00;5090917;28;20236;-80
2022/12/31 00:36:13;;;;;;;0.63;0.63;;;;;;;12.09;100.00;97944.06;5091054;28;20215;-80
2022/12/31 00:38:41;;;;;;;0.73;0.57;;;;;;;12.11;100.00;97952.75;5091086;28;20211;-80
2022/12/31 00:41:08;;;;;;;0.87;0.80;;;;;;;12.14;100.00;97947.22;5090722;28;20539;-80
2022/12/31 00:43:35;;;;;;;0.77;0.70;;;;;;;12.21;100.00;97951.91;5090591;28;20274;-80
2022/12/31 00:46:02;;;;;;;1.23;0.80;;;;;;;12.23;100.00;97943.84;5090846;28;20210;-80
2022/12/31 00:48:29;;;;;;;0.80;0.80;;;;;;;12.25;100.00;97942.78;5091086;28;20220;-80
2022/12/31 00:50:57;;;;;;;1.63;0.57;;;;;;;12.26;100.00;97948.88;5090601;28;20219;-80
2022/12/31 00:53:25;;;;;;;0.70;0.57;;;;;;;12.30;100.00;97953.00;5090744;28;20228;-80
2022/12/31 00:55:52;;;;;;;0.80;0.80;;;;;;;12.35;100.00;97951.66;5090725;28;20462;-80
2022/12/31 00:58:18;;;;;;;1.10;0.60;;;;;;;12.31;100.00;97965.28;5090920;28;20231;-80
2022/12/31 01:00:45;;;;;;;0.70;0.70;;;;;;;12.31;100.00;97963.50;5090584;28;20224;-80
2022/12/31 01:03:11;;;;;;;0.80;0.50;;;;;;;12.40;100.00;97967.22;5090416;28;20238;-80
2022/12/31 01:05:38;;;;;;;0.77;0.60;;;;;;;12.42;100.00;97970.59;5090623;28;20206;-80
2022/12/31 01:08:05;;;;;;;1.83;0.80;;;;;;;12.43;100.00;97980.22;5093893;28;20625;-80
2022/12/31 01:13:17;;;;;;;1.97;0.83;;;;;;;12.45;100.00;97973.84;5094271;28;20242;-79
2022/12/31 01:15:43;;;;;;;0.97;0.80;;;;;;;12.49;100.00;97980.59;5094479;28;20573;-80
2022/12/31 01:18:10;;;;;;;1.00;0.67;;;;;;;12.42;100.00;97989.97;5094275;28;20216;-79
2022/12/31 01:20:38;;;;;;;1.60;0.70;;;;;;;12.50;100.00;97992.00;5093815;28;20217;-79
2022/12/31 01:23:05;;;;;;;0.50;0.50;;;;;;;12.55;100.00;97995.16;5093862;28;20235;-79
2022/12/31 01:25:36;;;;;;;1.07;0.60;;;;;;;12.54;100.00;98009.38;5094293;28;20212;-81
2022/12/31 01:28:03;;;;;;;0.83;0.63;;;;;;;12.53;100.00;98005.88;5093921;28;20335;-80
2022/12/31 01:30:30;;;;;;;1.23;0.80;;;;;;;12.62;100.00;98006.94;5093729;28;20261;-80
2022/12/31 01:32:57;;;;;;;0.70;0.70;;;;;;;12.69;100.00;98013.44;5093943;28;20237;-80
2022/12/31 01:35:23;;;;;;;0.50;0.50;;;;;;;12.81;100.00;98005.38;5093695;28;20230;-80
2022/12/31 01:37:50;;;;;;;1.50;0.60;;;;;;;12.85;100.00;98019.22;5093971;28;20236;-80
2022/12/31 01:40:17;;;;;;;1.13;0.60;;;;;;;12.83;100.00;98014.03;5093457;28;20231;-80
2022/12/31 01:42:45;;;;;;;1.07;0.50;;;;;;;12.78;100.00;98007.44;5093759;28;20240;-81
2022/12/31 01:45:12;;;;;;;0.50;0.50;;;;;;;12.67;100.00;98016.25;5093608;28;20213;-80
2022/12/31 01:47:43;;;;;;;0.93;0.50;;;;;;;12.60;100.00;98019.50;5093658;28;20682;-80
2022/12/31 01:50:16;;;;;;;1.30;0.60;;;;;;;12.58;100.00;98024.06;5093207;28;20221;-79
2022/12/31 01:52:46;;;;;;;0.93;0.60;;;;;;;12.55;100.00;98026.97;5093714;28;20225;-80
2022/12/31 01:55:17;;;;;;;1.53;0.60;;;;;;;12.38;100.00;98019.47;5093865;28;20245;-79
2022/12/31 01:57:49;;;;;;;0.50;0.47;;;;;;;12.33;100.00;98033.09;5093595;28;20213;-79
2022/12/31 02:00:16;;;;;;;0.70;0.67;;;;;;;12.23;100.00;98036.59;5091976;28;20209;-79
2022/12/31 02:02:43;;;;;;;0.77;0.77;;;;;;;12.15;100.00;98041.63;5090538;28;20240;-80
2022/12/31 02:05:17;;;;;;;0.60;0.60;;;;;;;12.17;100.00;98052.97;5093684;28;20205;-79
2022/12/31 02:07:44;;;;;;;0.87;0.73;;;;;;;12.12;100.00;98041.88;5093271;28;20205;-81
2022/12/31 02:10:10;;;;;;;0.93;0.87;;;;;;;12.01;100.00;98041.84;5092836;28;20214;-80
2022/12/31 02:12:37;;;;;;;1.43;0.60;;;;;;;11.92;100.00;98050.50;5092973;28;20695;-80
2022/12/31 02:15:06;;;;;;;0.60;0.60;;;;;;;11.85;100.00;98052.75;5092832;28;20228;-80
2022/12/31 02:17:39;;;;;;;0.70;0.60;;;;;;;11.90;100.00;98045.31;5092553;28;20688;-80
2022/12/31 02:20:40;;;;;;;0.70;0.70;;;;;;;11.84;100.00;98052.84;5092318;28;20220;-80
2022/12/31 02:23:29;;;;;;;1.20;0.70;;;;;;;11.78;100.00;98050.66;5092773;28;20311;-80
2022/12/31 02:26:23;;;;;;;0.83;0.73;;;;;;;11.81;100.00;98045.16;5092921;28;20212;-80
2022/12/31 02:29:30;;;;;;;1.43;0.60;;;;;;;11.89;100.00;98054.22;5092391;28;20216;-80
2022/12/31 02:32:02;;;;;;;0.60;0.60;;;;;;;11.97;100.00;98049.16;5092798;28;20242;-80
2022/12/31 02:34:33;;;;;;;1.00;0.90;;;;;;;12.12;100.00;98049.81;5092521;28;20742;-80
2022/12/31 02:37:02;;;;;;;0.80;0.80;;;;;;;12.22;100.00;98048.16;5092893;28;20207;-80
2022/12/31 02:39:30;;;;;;;1.50;0.73;;;;;;;12.31;100.00;98055.38;5092326;28;20322;-80
2022/12/31 02:41:56;;;;;;;0.97;0.80;;;;;;;12.40;100.00;98042.25;5092480;28;20238;-80
2022/12/31 02:44:25;;;;;;;0.80;0.60;;;;;;;12.48;100.00;98037.19;5092334;28;20576;-80
2022/12/31 02:47:05;;;;;;;0.60;0.50;;;;;;;12.60;100.00;98024.81;5092480;28;20205;-80
2022/12/31 02:49:38;;;;;;;0.60;0.60;;;;;;;12.62;100.00;98020.22;5092123;28;20209;-80
2022/12/31 02:52:10;;;;;;;0.93;0.53;;;;;;;12.54;100.00;98020.81;5092364;28;20236;-80
2022/12/31 02:54:49;;;;;;;1.33;0.60;;;;;;;12.39;100.00;98026.47;5092232;28;20225;-80
2022/12/31 02:57:23;;;;;;;1.00;0.60;;;;;;;12.36;100.00;98021.41;5092636;28;20581;-80
2022/12/31 03:02:44;;;;;;;1.50;0.70;;;;;;;12.32;100.00;98027.91;5092349;28;20241;-81
2022/12/31 03:05:12;;;;;;;1.43;0.70;;;;;;;12.27;100.00;98022.13;5092169;28;20212;-81
2022/12/31 03:07:40;;;;;;;1.37;0.70;;;;;;;12.24;100.00;98025.84;5092090;28;20231;-81
2022/12/31 03:10:08;;;;;;;2.03;0.80;;;;;;;12.22;100.00;98021.66;5091680;28;20230;-81
2022/12/31 03:12:46;;;;;;;1.10;0.77;;;;;;;12.20;100.00;98028.88;5092017;28;20609;-81
2022/12/31 03:15:21;;;;;;;1.40;0.83;;;;;;;12.19;100.00;98030.69;5091827;28;20229;-81
2022/12/31 03:18:00;;;;;;;1.00;0.70;;;;;;;12.14;100.00;98024.91;5091867;28;20204;-81
2022/12/31 03:23:20;;;;;;;1.43;0.60;;;;;;;12.38;100.00;98024.78;5091767;28;20253;-80
2022/12/31 03:25:46;;;;;;;0.60;0.60;;;;;;;12.42;100.00;98026.25;5091610;28;20213;-81
2022/12/31 03:28:15;;;;;;;0.60;0.60;;;;;;;12.48;100.00;98026.59;5091737;28;20213;-81
2022/12/31 03:30:45;;;;;;;1.93;0.90;;;;;;;12.50;100.00;98018.53;5091271;28;20216;-81
2022/12/31 03:33:13;;;;;;;1.30;0.73;;;;;;;12.43;100.00;98022.63;5091723;28;20229;-81
2022/12/31 03:35:42;;;;;;;0.60;0.60;;;;;;;12.41;100.00;98033.34;5091428;28;20232;-81
2022/12/31 03:38:09;;;;;;;1.07;0.70;;;;;;;12.61;100.00;98026.47;5091527;28;20203;-80
2022/12/31 03:40:38;;;;;;;1.10;0.67;;;;;;;12.72;100.00;98031.78;5091138;28;20227;-81
2022/12/31 03:43:05;;;;;;;2.03;1.00;;;;;;;12.84;100.00;98038.78;5091334;28;20233;-80
2022/12/31 03:45:33;;;;;;;0.60;0.60;;;;;;;12.93;100.00;98024.75;5091415;28;20240;-81
2022/12/31 03:47:59;;;;;;;3.23;0.77;;;;;;;12.96;100.00;98028.03;5091424;28;20208;-81
2022/12/31 03:50:27;;;;;;;0.60;0.60;;;;;;;12.95;100.00;98030.81;5091002;28;20654;-80
2022/12/31 03:52:54;;;;;;;1.13;0.80;;;;;;;12.88;100.00;98050.81;5091226;28;20240;-81
2022/12/31 03:55:20;;;;;;;0.73;0.63;;;;;;;12.97;100.00;98042.16;5091435;28;20249;-80
2022/12/31 03:57:47;;;;;;;2.53;0.90;;;;;;;13.04;100.00;98036.25;5091385;28;20309;-80
2022/12/31 04:00:16;;;;;;;1.00;0.70;;;;;;;13.19;100.00;98034.13;5090815;28;20206;-80
2022/12/31 04:02:42;;;;;;;0.73;0.50;;;;;;;13.23;100.00;98047.06;5091054;28;20335;-80
2022/12/31 04:05:10;;;;;;;0.77;0.67;;;;;;;13.29;100.00;98040.41;5091145;28;20203;-76
2022/12/31 04:07:38;;;;;;;2.30;0.80;;;;;;;13.36;100.00;98025.66;5090994;28;20217;-79
2022/12/31 04:10:06;;;;;;;0.60;0.60;;;;;;;13.45;100.00;98031.03;5090772;28;20723;-80
2022/12/31 04:12:33;;;;;;;1.03;0.60;;;;;;;13.58;100.00;98025.56;5091287;28;20234;-80
2022/12/31 04:15:00;;;;;;;1.30;0.57;;;;;;;13.63;100.00;98031.34;5091042;28;20237;-80
2022/12/31 04:17:27;;;;;;;0.60;0.60;;;;;;;13.68;100.00;98026.50;5091141;28;20594;-82
2022/12/31 04:19:53;;;;;;;1.60;0.63;;;;;;;13.70;100.00;98027.22;5090865;28;20217;-79
2022/12/31 04:22:20;;;;;;;0.90;0.60;;;;;;;13.70;100.00;98024.56;5091123;28;20257;-80
2022/12/31 04:24:48;;;;;;;1.87;0.70;;;;;;;13.74;100.00;98020.69;5091324;28;20361;-80
2022/12/31 04:27:15;;;;;;;0.57;0.57;;;;;;;13.76;100.00;98022.22;5091096;28;20214;-80
2022/12/31 04:29:42;;;;;;;0.40;0.40;;;;;;;13.80;100.00;98020.16;5090790;28;20206;-80
2022/12/31 04:32:09;;;;;;;1.33;0.80;;;;;;;13.83;100.00;98010.13;5090805;28;20222;-79
2022/12/31 04:34:35;;;;;;;0.50;0.50;;;;;;;13.83;100.00;98025.22;5090828;28;20210;-80
2022/12/31 04:37:03;;;;;;;0.80;0.53;;;;;;;13.92;100.00;98024.44;5091146;28;20236;-80
2022/12/31 04:39:29;;;;;;;0.80;0.50;;;;;;;13.85;100.00;98020.59;5090765;28;20213;-80
2022/12/31 04:41:57;;;;;;;0.50;0.50;;;;;;;13.84;100.00;98037.53;5092465;28;20231;-80
2022/12/31 04:44:23;;;;;;;0.83;0.50;;;;;;;13.78;100.00;98033.59;5094938;28;20207;-79
2022/12/31 04:46:50;;;;;;;0.77;0.60;;;;;;;13.78;100.00;98038.91;5094828;28;20206;-79
2022/12/31 04:49:16;;;;;;;0.50;0.50;;;;;;;13.77;100.00;98042.53;5094218;28;20211;-79
2022/12/31 04:51:43;;;;;;;0.50;0.50;;;;;;;13.70;100.00;98051.13;5094461;28;20218;-79
2022/12/31 04:54:09;;;;;;;0.60;0.60;;;;;;;13.68;100.00;98061.03;5094697;28;20218;-79
2022/12/31 04:56:36;;;;;;;0.90;0.53;;;;;;;13.69;100.00;98062.72;5094717;28;20617;-79
2022/12/31 04:59:04;;;;;;;1.47;0.60;;;;;;;13.72;100.00;98059.78;5094327;28;20211;-79
2022/12/31 05:01:31;;;;;;;1.43;0.60;;;;;;;13.70;100.00;98064.41;5094369;28;20211;-79
2022/12/31 05:03:58;;;;;;;0.50;0.50;;;;;;;13.67;100.00;98060.19;5094157;28;20234;-79
2022/12/31 05:06:25;;;;;;;1.17;0.67;;;;;;;13.75;100.00;98070.19;5094579;28;20199;-79
2022/12/31 05:08:51;;;;;;;0.90;0.50;;;;;;;13.74;100.00;98068.50;5094299;28;20214;-79
2022/12/31 05:11:18;;;;;;;0.97;0.60;;;;;;;13.77;100.00;98060.25;5094546;28;20253;-79
2022/12/31 05:13:44;;;;;;;0.53;0.53;;;;;;;13.69;100.00;98071.50;5094360;28;20237;-80
2022/12/31 05:16:12;;;;;;;1.33;0.60;;;;;;;13.79;100.00;98074.25;5094098;28;20234;-79
2022/12/31 05:18:39;;;;;;;1.50;0.60;;;;;;;13.77;100.00;98073.53;5094112;28;20640;-79
2022/12/31 05:21:06;;;;;;;0.87;0.40;;;;;;;13.72;100.00;98081.03;5094198;28;20218;-79
2022/12/31 05:23:32;;;;;;;0.90;0.47;;;;;;;13.74;100.00;98074.63;5094144;28;20626;-80
2022/12/31 05:26:00;;;;;;;0.50;0.50;;;;;;;13.69;100.00;98082.13;5094061;28;20203;-80
2022/12/31 05:28:27;;;;;;;0.40;0.40;;;;;;;13.78;100.00;98070.78;5094111;28;20207;-79
2022/12/31 05:30:53;;;;;;;0.50;0.50;;;;;;;13.77;100.00;98084.16;5093742;28;20217;-79
2022/12/31 05:33:21;;;;;;;0.47;0.47;;;;;;;13.73;100.00;98088.03;5093875;28;20226;-79
2022/12/31 05:35:48;;;;;;;0.50;0.50;;;;;;;13.68;100.00;98096.41;5093851;28;20329;-80
2022/12/31 05:38:14;;;;;;;0.70;0.70;;;;;;;13.69;100.00;98097.25;5093908;28;20213;-79
2022/12/31 05:40:41;;;;;;;0.70;0.70;;;;;;;13.68;100.00;98095.56;5093774;28;20211;-80
2022/12/31 05:43:07;;;;;;;0.50;0.50;;;;;;;13.65;100.00;98101.97;5093588;28;20227;-79
2022/12/31 05:45:34;;;;;;;0.67;0.67;;;;;;;13.55;100.00;98106.34;5093590;28;20551;-80
2022/12/31 05:48:00;;;;;;;1.17;0.60;;;;;;;13.68;100.00;98114.16;5093589;28;20222;-79
2022/12/31 05:50:28;;;;;;;0.80;0.40;;;;;;;13.67;100.00;98112.44;5093202;28;20207;-79
2022/12/31 05:52:55;;;;;;;0.80;0.60;;;;;;;13.70;100.00;98107.72;5093579;28;20230;-79
2022/12/31 05:55:21;;;;;;;0.63;0.50;;;;;;;13.81;100.00;98106.88;5093548;28;20235;-79
2022/12/31 05:57:48;;;;;;;1.53;0.67;;;;;;;13.86;100.00;98110.81;5093530;28;20221;-79
2022/12/31 06:00:15;;;;;;;0.70;0.60;;;;;;;13.89;100.00;98109.72;5093165;28;20589;-79
2022/12/31 06:02:41;;;;;;;0.60;0.60;;;;;;;13.92;100.00;98112.09;5103465;22;20548;-77
2022/12/31 06:05:09;;;;;;;0.67;0.60;;;;;;;13.96;100.00;98116.22;5073161;28;20677;-77
2022/12/31 06:07:37;;;;;;;0.50;0.50;;;;;;;14.07;100.00;98108.19;5073326;28;20269;-77
2022/12/31 06:10:03;;;;;;;2.27;0.60;;;;;;;14.14;100.00;98112.03;5072790;28;20693;-77
2022/12/31 06:12:30;;;;;;;0.70;0.70;;;;;;;14.12;100.00;98106.81;5072951;28;20344;-77
2022/12/31 06:14:56;;;;;;;0.60;0.60;;;;;;;14.12;100.00;98113.97;5072851;28;20682;-77
2022/12/31 06:17:23;;;;;;;0.60;0.60;;;;;;;14.09;100.00;98114.22;5073056;28;20208;-77
2022/12/31 06:19:49;;;;;;;0.60;0.60;;;;;;;14.06;100.00;98111.84;5072560;28;20299;-77
2022/12/31 06:22:16;;;;;;;1.07;0.83;;;;;;;14.01;100.00;98111.38;5072724;28;20678;-77
2022/12/31 06:24:44;;;;;;;0.50;0.50;;;;;;;13.97;100.00;98115.25;5072880;28;20237;-77
2022/12/31 06:27:10;;;;;;;0.60;0.60;;;;;;;13.92;100.00;98120.09;5072695;28;20211;-77
2022/12/31 06:29:37;;;;;;;0.70;0.70;;;;;;;13.85;100.00;98121.56;5072474;28;20213;-76
2022/12/31 06:32:04;;;;;;;0.90;0.70;;;;;;;13.83;100.00;98121.72;5072638;28;20557;-76
2022/12/31 06:34:30;;;;;;;0.70;0.60;;;;;;;13.76;100.00;98130.31;5072472;28;20696;-76
2022/12/31 06:36:57;;;;;;;0.60;0.50;;;;;;;13.72;100.00;98139.47;5072470;28;20226;-77
2022/12/31 06:39:23;;;;;;;0.80;0.80;;;;;;;13.71;100.00;98137.78;5072360;28;20216;-79
2022/12/31 06:41:51;;;;;;;0.70;0.70;;;;;;;13.68;100.00;98164.63;5072334;28;20214;-78
2022/12/31 06:44:17;;;;;;;0.60;0.60;;;;;;;13.68;100.00;98156.66;5072435;28;20227;-78
2022/12/31 06:46:44;;;;;;;0.70;0.70;;;;;;;13.73;100.00;98143.81;5072615;28;20207;-78
2022/12/31 06:49:11;;;;;;;2.03;0.80;;;;;;;13.69;100.00;98145.06;5072037;28;20209;-78
2022/12/31 06:51:37;;;;;;;0.60;0.60;;;;;;;13.59;100.00;98137.00;5072293;28;20215;-78
2022/12/31 06:54:04;;;;;;;1.03;0.80;;;;;;;13.54;100.00;98140.97;5072134;28;20257;-79
2022/12/31 06:56:31;;;;;;;1.57;1.00;;;;;;;13.52;100.00;98142.91;5071809;28;20227;-79
2022/12/31 06:58:59;;;;;;;1.00;0.90;;;;;;;13.53;100.00;98132.19;5071954;28;20215;-75
2022/12/31 07:01:36;;;;;;;1.33;0.73;;;;;;;13.44;100.00;98145.34;5071959;28;20235;-75
2022/12/31 07:04:16;;;;;;;0.60;0.60;;;;;;;13.38;100.00;98153.81;5071409;28;20242;-77
2022/12/31 07:06:48;;;;;;;0.70;0.70;;;;;;;13.45;100.00;98152.34;5071867;28;20210;-77
2022/12/31 07:09:24;;;;;;;1.30;0.60;;;;;;;13.41;100.00;98140.28;5071828;28;20530;-77
2022/12/31 07:12:00;;;;;;;0.83;0.70;;;;;;;13.39;100.00;98143.03;5072015;28;20211;-77
2022/12/31 07:14:37;;;;;;;0.73;0.70;;;;;;;13.42;100.00;98142.81;5072097;28;20211;-76
2022/12/31 07:17:17;;;;;;;0.50;0.50;;;;;;;13.39;100.00;98155.50;5071869;28;20229;-77
2022/12/31 07:19:53;;;;;;;0.87;0.60;;;;;;;13.41;100.00;98161.50;5071676;28;20215;-77
2022/12/31 07:22:20;;;;;;;2.40;0.63;;;;;;;13.40;100.00;98170.44;5072134;28;20262;-77
2022/12/31 07:24:47;;;;;;;1.13;0.70;;;;;;;13.50;100.00;98166.09;5071754;28;20294;-77
2022/12/31 07:27:30;;;;;;;0.80;0.50;;;;;;;13.49;100.00;98159.06;5071676;28;20210;-77
2022/12/31 07:30:04;;;;;;;0.50;0.50;;;;;;;13.58;100.00;98153.88;5071936;28;20210;-77
2022/12/31 07:32:50;;;;;;;0.70;0.70;;;;;;;13.65;100.00;98149.78;5071510;28;20711;-78
2022/12/31 07:35:25;;;;;;;0.87;0.70;;;;;;;13.69;100.00;98145.88;5071328;28;20211;-77
2022/12/31 07:38:02;;;;;;;1.13;0.70;;;;;;;13.74;100.00;98138.38;5071393;28;20664;-77
2022/12/31 07:40:38;;;;;;;0.60;0.60;;;;;;;13.79;100.00;98138.00;5071171;28;20305;-77
2022/12/31 07:43:12;;;;;;;1.10;0.63;;;;;;;13.88;100.00;98147.91;5071339;28;20234;-77
2022/12/31 07:45:46;;;;;;;1.63;0.70;;;;;;;13.93;100.00;98143.06;5071444;28;20199;-77
2022/12/31 07:48:21;;;;;;;0.83;0.60;;;;;;;13.99;100.00;98132.75;5071408;28;20210;-77
2022/12/31 07:50:48;;;;;;;2.30;0.70;;;;;;;13.99;100.00;98121.28;5071133;28;20688;-77
2022/12/31 07:53:15;;;;;;;0.80;0.80;;;;;;;14.03;100.00;98125.34;5070714;28;20227;-77
2022/12/31 07:55:42;;;;;;;1.47;0.60;;;;;;;14.08;100.00;98123.16;5068527;28;20231;-77
2022/12/31 07:58:18;;;;;;;0.60;0.60;;;;;;;14.09;100.00;98127.50;5071252;28;20213;-77
2022/12/31 08:00:46;;;;;;;0.60;0.60;;;;;;;14.17;100.00;98135.72;5070827;28;20211;-77
2022/12/31 08:03:23;;;;;;;1.07;0.57;;;;;;;14.13;99.79;98134.25;5067952;28;20250;-77
2022/12/31 08:06:00;;;;;;;0.70;0.70;;;;;;;14.17;99.71;98141.03;5071039;28;20207;-77
2022/12/31 08:08:36;;;;;;;0.50;0.50;;;;;;;14.22;98.92;98146.81;5071283;28;20210;-78
2022/12/31 08:11:15;;;;;;;0.97;0.70;;;;;;;14.26;98.50;98142.94;5068323;28;20214;-77
2022/12/31 08:13:42;;;;;;;0.60;0.60;;;;;;;14.28;98.25;98148.94;5070519;28;20231;-77
2022/12/31 08:16:12;;;;;;;0.80;0.60;;;;;;;14.42;97.09;98144.16;5071510;28;20227;-77
2022/12/31 08:18:39;;;;;;;0.70;0.70;;;;;;;14.48;96.93;98148.13;5072851;28;20222;-77
2022/12/31 08:21:15;;;;;;;0.53;0.53;;;;;;;14.52;95.71;98152.22;5073844;28;20214;-77
2022/12/31 08:23:52;;;;;;;1.10;0.80;;;;;;;14.57;95.78;98147.34;5075087;28;20693;-77
2022/12/31 08:26:31;;;;;;;0.87;0.70;;;;;;;14.53;96.13;98159.19;5073156;28;20424;-77
2022/12/31 08:29:08;;;;;;;1.40;0.90;;;;;;;14.59;95.75;98142.72;5073771;28;20625;-77
2022/12/31 08:31:43;;;;;;;0.70;0.70;;;;;;;14.58;95.25;98143.72;5074956;28;20219;-77
2022/12/31 08:34:20;;;;;;;1.97;0.70;;;;;;;14.61;94.29;98133.66;5072732;28;20318;-77
2022/12/31 08:36:52;;;;;;;0.70;0.70;;;;;;;14.67;93.44;98140.28;5073741;28;20227;-77
2022/12/31 08:39:32;;;;;;;0.77;0.77;;;;;;;14.65;93.99;98152.84;5074455;28;20207;-77
2022/12/31 08:42:03;;;;;;;1.27;0.60;;;;;;;14.68;93.70;98157.91;5072856;28;20534;-77
2022/12/31 08:44:36;;;;;;;1.77;0.70;;;;;;;14.69;93.14;98148.97;5073261;28;20212;-77
2022/12/31 08:47:13;;;;;;;0.60;0.60;;;;;;;14.73;93.00;98167.19;5074934;28;20606;-77
2022/12/31 08:49:41;;;;;;;0.70;0.70;;;;;;;14.77;91.95;98162.44;5072053;28;20210;-77
2022/12/31 08:52:15;;;;;;;1.13;0.60;;;;;;;14.76;92.70;98179.38;5072476;28;20347;-78
2022/12/31 08:54:42;;;;;;;0.70;0.70;;;;;;;14.77;92.53;98178.41;5074148;28;20434;-77
2022/12/31 08:57:17;;;;;;;0.63;0.60;;;;;;;14.82;91.40;98185.03;5074040;28;20231;-77
2022/12/31 08:59:49;;;;;;;1.57;0.70;;;;;;;14.87;90.89;98195.28;5074481;28;20214;-77
2022/12/31 09:02:38;;;;;;;1.43;0.70;;;;;;;14.86;91.44;98198.94;5073081;28;20240;-77
2022/12/31 09:05:14;;;;;;;0.70;0.70;;;;;;;14.88;90.27;98192.50;5073216;28;20291;-77
2022/12/31 09:07:49;;;;;;;0.70;0.70;;;;;;;15.05;89.17;98172.41;5073228;28;20436;-78
2022/12/31 09:10:21;;;;;;;1.27;0.80;;;;;;;14.99;89.37;98183.59;5074138;28;20212;-78
2022/12/31 09:12:59;;;;;;;0.90;0.70;;;;;;;14.97;89.51;98182.88;5074152;28;20227;-79
2022/12/31 09:15:33;;;;;;;0.70;0.70;;;;;;;14.97;89.65;98185.56;5074290;28;20208;-77
2022/12/31 09:18:02;;;;;;;0.60;0.60;;;;;;;14.93;89.91;98197.41;5073908;28;20228;-77
2022/12/31 09:20:31;;;;;;;1.20;0.60;;;;;;;14.96;90.61;98206.00;5073895;28;20204;-77
2022/12/31 09:22:59;;;;;;;1.00;0.70;;;;;;;15.05;89.15;98193.72;5073894;28;20235;-77
2022/12/31 09:25:26;;;;;;;1.00;0.60;;;;;;;15.18;88.30;98259.09;5073962;28;20227;-78
2022/12/31 09:28:09;;;;;;;1.63;0.80;;;;;;;15.20;88.36;98254.47;5073326;28;20686;-78
2022/12/31 09:30:43;;;;;;;1.33;0.70;;;;;;;15.25;87.88;98259.38;5073383;28;20584;-77
2022/12/31 09:33:22;;;;;;;0.77;0.60;;;;;;;15.33;87.36;98262.28;5073844;28;20233;-78
2022/12/31 09:35:54;;;;;;;1.30;0.80;;;;;;;15.44;86.39;98263.03;5073861;28;20234;-78
2022/12/31 09:38:26;;;;;;;1.00;0.73;;;;;;;15.50;86.30;98264.31;5073729;28;20205;-78
2022/12/31 09:41:25;;;;;;;0.80;0.60;;;;;;;15.50;86.28;98256.31;5073279;28;20654;-78
2022/12/31 09:44:37;;;;;;;1.47;0.80;;;;;;;15.54;86.47;98271.06;5061902;28;20581;-78
2022/12/31 09:47:49;;;;;;;1.17;0.70;;;;;;;15.58;85.69;98264.50;5045315;28;20216;-78
2022/12/31 09:50:45;;;;;;;0.97;0.70;;;;;;;15.64;85.07;98254.16;5072286;28;20706;-78
2022/12/31 09:53:32;;;;;;;0.50;0.50;;;;;;;15.72;84.61;98256.16;5064795;28;20599;-79
2022/12/31 09:56:05;;;;;;;0.70;0.70;;;;;;;15.73;85.03;98255.16;5071568;28;20206;-78
2022/12/31 09:58:43;;;;;;;0.90;0.80;;;;;;;15.84;82.48;98241.75;5073354;28;20693;-77
2022/12/31 10:01:25;;;;;;;1.00;0.60;;;;;;;15.97;83.28;98231.69;5073181;28;20615;-77
2022/12/31 10:04:25;;;;;;;0.57;0.57;;;;;;;16.08;81.49;98217.25;5073062;28;20245;-77
2022/12/31 10:07:05;;;;;;;2.30;0.70;;;;;;;16.13;80.98;98232.81;5073312;28;20217;-77
2022/12/31 10:09:57;;;;;;;0.53;0.53;;;;;;;16.17;82.44;98248.44;5072805;28;20208;-77
2022/12/31 10:12:42;;;;;;;0.60;0.60;;;;;;;16.25;80.74;98240.56;5072698;28;20427;-77
2022/12/31 10:15:38;;;;;;;0.93;0.60;;;;;;;16.31;79.37;98232.03;5073260;28;20217;-77
2022/12/31 10:18:17;;;;;;;1.13;0.60;;;;;;;16.28;80.44;98226.94;5073009;28;20236;-78
2022/12/31 10:20:57;;;;;;;1.00;0.60;;;;;;;16.29;79.16;98220.66;5072516;28;20217;-77
2022/12/31 10:23:51;;;;;;;2.23;0.70;;;;;;;16.26;78.46;98222.72;5072903;28;20234;-78
2022/12/31 10:26:31;;;;;;;1.80;0.73;;;;;;;16.28;79.39;98226.13;5072920;28;20221;-79
2022/12/31 10:29:10;;;;;;;1.07;0.80;;;;;;;16.32;78.59;98223.03;5072473;28;20338;-78
2022/12/31 10:31:47;;;;;;;1.83;0.57;;;;;;;16.28;79.43;98232.28;5072848;28;20217;-77
2022/12/31 10:34:16;;;;;;;1.33;0.60;;;;;;;16.23;80.42;98239.88;5072822;28;20234;-78
2022/12/31 10:37:03;;;;;;;1.33;0.60;;;;;;;16.42;77.43;98221.25;5072526;28;20235;-77
2022/12/31 10:39:47;;;;;;;0.70;0.70;;;;;;;16.51;76.34;98222.25;5071695;28;20202;-79
2022/12/31 10:42:44;;;;;;;0.57;0.57;;;;;;;16.48;78.14;98226.03;5072545;28;20206;-79
2022/12/31 10:45:43;;;;;;;1.03;0.60;;;;;;;16.55;76.86;98208.47;5072587;28;20218;-79
2022/12/31 10:48:37;;;;;;;0.70;0.70;;;;;;;16.53;76.64;98204.25;5072817;28;20214;-79
2022/12/31 10:51:24;;;;;;;1.03;0.70;;;;;;;16.55;76.82;98210.28;5072079;28;20206;-78
2022/12/31 10:54:23;;;;;;;1.47;0.80;;;;;;;16.63;74.74;98203.25;5072235;28;20241;-78
2022/12/31 10:57:27;;;;;;;1.80;0.70;;;;;;;16.55;76.34;98208.47;5072338;28;20234;-76
2022/12/31 11:00:12;;;;;;;0.60;0.60;;;;;;;16.59;76.28;98209.03;5071265;28;20222;-76
2022/12/31 11:03:29;;;;;;;0.90;0.60;;;;;;;16.57;76.62;98214.50;5070067;28;20234;-76
2022/12/31 11:06:42;;;;;;;0.87;0.57;;;;;;;16.55;75.64;98205.81;5071831;28;20218;-76
2022/12/31 11:09:31;;;;;;;0.90;0.60;;;;;;;16.67;74.85;98202.00;5071651;28;20203;-71
2022/12/31 11:12:05;;;;;;;0.97;0.70;;;;;;;16.70;74.97;98211.56;5072076;28;20210;-72
2022/12/31 11:14:57;;;;;;;1.13;0.57;;;;;;;16.68;74.99;98198.34;5071793;28;20677;-76
2022/12/31 11:17:43;;;;;;;0.50;0.50;;;;;;;16.71;74.18;98192.72;5071828;28;20234;-76
2022/12/31 11:20:28;;;;;;;0.60;0.60;;;;;;;16.80;73.40;98186.53;5071394;28;20218;-76
2022/12/31 11:23:04;;;;;;;0.80;0.60;;;;;;;16.76;74.50;98200.31;5071807;28;20226;-79
2022/12/31 11:25:40;;;;;;;0.83;0.70;;;;;;;16.83;74.06;98204.09;5072546;28;20581;-77
2022/12/31 11:28:22;;;;;;;0.80;0.77;;;;;;;16.96;71.72;98188.59;5071586;28;20731;-77
2022/12/31 11:31:13;;;;;;;0.83;0.60;;;;;;;16.98;71.62;98184.81;5071458;28;20221;-76
2022/12/31 11:33:53;;;;;;;1.10;0.60;;;;;;;17.02;71.53;98182.69;5068369;28;20239;-76
2022/12/31 11:36:30;;;;;;;0.67;0.60;;;;;;;17.12;70.16;98165.66;5071711;28;20222;-76
2022/12/31 11:39:19;;;;;;;0.60;0.60;;;;;;;17.10;71.71;98185.47;5071268;28;20202;-76
2022/12/31 11:41:52;;;;;;;0.90;0.60;;;;;;;17.11;71.79;98180.00;5071278;28;20284;-76
2022/12/31 11:44:29;;;;;;;0.60;0.50;;;;;;;17.03;71.68;98177.22;5071324;28;20242;-77
2022/12/31 11:47:12;;;;;;;0.60;0.60;;;;;;;17.19;69.35;98166.75;5071584;28;20214;-77
2022/12/31 11:50:00;;;;;;;1.73;0.70;;;;;;;17.16;69.11;98160.84;5071130;28;20626;-77
2022/12/31 11:52:53;;;;;;;1.43;0.60;;;;;;;17.20;69.34;98157.72;5071541;28;20234;-76
2022/12/31 11:55:37;;;;;;;1.07;0.60;;;;;;;17.18;69.03;98146.38;5071412;28;20217;-76
2022/12/31 11:58:12;;;;;;;0.50;0.50;;;;;;;17.22;68.10;98145.09;5071269;28;20250;-77
2022/12/31 12:00:42;;;;;;;0.60;0.60;;;;;;;17.24;67.09;98140.44;5069380;28;20217;-75
2022/12/31 12:03:11;;;;;;;0.50;0.50;;;;;;;17.24;68.20;98143.09;5079072;22;20239;-79